Time;durP1;ratioP1;P1;durP2;ratioP2;P2;SDS_P1;SDS_P2;PMS_P1;PMS_P2;Temp;Humidity;BMP_temperature;BMP_pressure;BME280_temperature;BME280_humidity;BME280_pressure;Samples;Min_cycle;Max_cycle;Signal;HPM_P1;HPM_P2
2021/09/21 00:02:04;;;;;;;18.90;14.30;;;;;;;;;;4997536;28;20469;-83
2021/09/21 00:04:30;;;;;;;18.25;14.75;;;;;;;;;;5016944;28;20700;-83
2021/09/21 00:06:57;;;;;;;18.70;13.07;;;;;;;;;;4998177;28;20203;-83
2021/09/21 00:09:23;;;;;;;20.73;13.52;;;;;;;;;;5005728;28;20426;-83
2021/09/21 00:11:51;;;;;;;18.35;12.05;;;;;;;;;;5002250;28;20183;-83
2021/09/21 00:14:17;;;;;;;18.05;14.05;;;;;;;;;;5014014;28;20211;-83
2021/09/21 00:16:43;;;;;;;20.73;14.10;;;;;;;;;;4999983;28;20194;-82
2021/09/21 00:19:09;;;;;;;19.00;14.18;;;;;;;;;;5013921;28;20497;-82
2021/09/21 00:21:35;;;;;;;17.37;12.93;;;;;;;;;;5004784;28;20265;-82
2021/09/21 00:24:01;;;;;;;19.55;14.68;;;;;;;;;;4999203;28;21106;-82
2021/09/21 00:26:27;;;;;;;22.20;14.33;;;;;;;;;;4998627;28;20186;-82
2021/09/21 00:28:53;;;;;;;22.33;14.57;;;;;;;;;;5002691;28;20453;-81
2021/09/21 00:31:21;;;;;;;19.33;12.27;;;;;;;;;;5017162;28;22511;-82
2021/09/21 00:34:05;;;;;;;20.15;14.05;;;;;;;;;;5019161;28;20731;-81
2021/09/21 00:36:35;;;;;;;18.70;12.82;;;;;;;;;;5001816;28;20188;-81
2021/09/21 00:39:00;;;;;;;19.65;14.00;;;;;;;;;;5002726;28;20242;-81
2021/09/21 00:41:27;;;;;;;20.47;13.93;;;;;;;;;;5001910;28;20219;-81
2021/09/21 00:43:52;;;;;;;19.70;13.95;;;;;;;;;;5000493;28;20476;-82
2021/09/21 00:46:18;;;;;;;20.63;13.33;;;;;;;;;;5001919;28;20213;-81
2021/09/21 00:48:46;;;;;;;19.80;13.50;;;;;;;;;;5004281;28;20438;-81
2021/09/21 00:51:12;;;;;;;19.05;13.25;;;;;;;;;;5004113;28;20858;-81
2021/09/21 00:53:38;;;;;;;23.27;15.07;;;;;;;;;;4995191;28;20224;-80
2021/09/21 00:56:04;;;;;;;23.33;15.50;;;;;;;;;;5001093;28;20737;-82
2021/09/21 00:58:30;;;;;;;17.45;13.65;;;;;;;;;;5002225;28;20438;-81
2021/09/21 01:00:56;;;;;;;21.55;14.88;;;;;;;;;;5017371;28;20226;-81
2021/09/21 01:03:22;;;;;;;21.42;13.60;;;;;;;;;;5005303;28;20200;-81
2021/09/21 01:05:48;;;;;;;18.00;14.47;;;;;;;;;;4995388;28;20179;-81
2021/09/21 01:08:14;;;;;;;20.90;14.20;;;;;;;;;;4995098;28;20451;-82
2021/09/21 01:10:40;;;;;;;19.00;14.77;;;;;;;;;;4999033;28;20278;-81
2021/09/21 01:13:06;;;;;;;22.90;15.20;;;;;;;;;;5000929;28;20431;-81
2021/09/21 01:15:32;;;;;;;17.73;12.90;;;;;;;;;;5004229;28;20607;-81
2021/09/21 01:17:58;;;;;;;23.27;14.90;;;;;;;;;;5000963;28;20423;-81
2021/09/21 01:20:25;;;;;;;20.75;13.40;;;;;;;;;;5000036;28;20199;-81
2021/09/21 01:22:51;;;;;;;22.52;14.85;;;;;;;;;;5016554;28;20557;-81
2021/09/21 01:25:18;;;;;;;21.92;15.52;;;;;;;;;;5015472;28;20232;-80
2021/09/21 01:27:43;;;;;;;20.65;14.13;;;;;;;;;;5002929;28;20181;-81
2021/09/21 01:30:11;;;;;;;22.43;13.50;;;;;;;;;;5002834;28;20585;-81
2021/09/21 01:32:37;;;;;;;18.98;13.73;;;;;;;;;;5017864;28;20509;-81
2021/09/21 01:35:03;;;;;;;21.83;14.93;;;;;;;;;;5001023;28;20637;-81
2021/09/21 01:37:30;;;;;;;22.98;14.60;;;;;;;;;;5017554;28;20187;-81
2021/09/21 01:39:56;;;;;;;22.25;15.20;;;;;;;;;;4995121;28;20219;-80
2021/09/21 01:42:22;;;;;;;19.48;14.25;;;;;;;;;;5000754;28;20186;-80
2021/09/21 01:44:48;;;;;;;19.85;14.40;;;;;;;;;;4998550;28;20250;-81
2021/09/21 01:47:17;;;;;;;21.27;14.70;;;;;;;;;;5002545;28;20552;-80
2021/09/21 01:52:52;;;;;;;20.58;14.30;;;;;;;;;;5000577;28;20188;-80
2021/09/21 01:58:20;;;;;;;20.17;14.65;;;;;;;;;;4978948;28;20681;-80
2021/09/21 02:00:46;;;;;;;21.75;14.35;;;;;;;;;;4981544;28;20196;-80
2021/09/21 02:03:12;;;;;;;19.23;14.18;;;;;;;;;;4982473;28;20666;-81
2021/09/21 02:05:39;;;;;;;26.08;15.35;;;;;;;;;;4978657;28;20199;-80
2021/09/21 02:08:05;;;;;;;20.50;15.00;;;;;;;;;;4978825;28;20184;-80
2021/09/21 02:10:31;;;;;;;24.40;14.13;;;;;;;;;;4978034;28;20204;-80
2021/09/21 02:12:57;;;;;;;21.35;15.05;;;;;;;;;;4978479;28;20214;-80
2021/09/21 02:15:23;;;;;;;23.00;14.47;;;;;;;;;;4982388;28;20216;-79
2021/09/21 02:17:49;;;;;;;23.13;14.47;;;;;;;;;;4978773;28;20451;-80
2021/09/21 02:20:15;;;;;;;19.25;14.45;;;;;;;;;;4981044;28;20452;-80
2021/09/21 02:22:41;;;;;;;19.55;14.95;;;;;;;;;;4978336;28;20223;-80
2021/09/21 02:25:08;;;;;;;21.60;14.70;;;;;;;;;;4978590;28;20211;-80
2021/09/21 02:27:34;;;;;;;20.38;15.27;;;;;;;;;;4972923;28;20206;-80
2021/09/21 02:30:00;;;;;;;18.23;13.33;;;;;;;;;;4972421;28;20175;-80
2021/09/21 02:32:25;;;;;;;17.10;12.50;;;;;;;;;;4987114;28;20467;-80
2021/09/21 02:34:53;;;;;;;20.40;12.60;;;;;;;;;;4978932;28;20446;-80
2021/09/21 02:37:19;;;;;;;22.23;13.73;;;;;;;;;;5017739;28;20500;-80
2021/09/21 02:39:45;;;;;;;18.25;13.25;;;;;;;;;;5004234;28;20191;-80
2021/09/21 02:42:11;;;;;;;17.63;13.32;;;;;;;;;;5006506;28;20187;-80
2021/09/21 02:44:37;;;;;;;18.73;13.52;;;;;;;;;;4998118;28;20227;-79
2021/09/21 02:47:04;;;;;;;18.70;14.00;;;;;;;;;;4998298;28;20254;-79
2021/09/21 02:49:31;;;;;;;19.60;12.70;;;;;;;;;;5006002;28;20179;-80
2021/09/21 02:51:57;;;;;;;20.52;13.77;;;;;;;;;;5001379;28;20221;-79
2021/09/21 02:54:23;;;;;;;18.35;12.95;;;;;;;;;;4998580;28;20237;-79
2021/09/21 02:56:49;;;;;;;25.23;12.68;;;;;;;;;;5014968;28;20218;-79
2021/09/21 02:59:15;;;;;;;21.52;14.55;;;;;;;;;;5008092;28;20198;-79
2021/09/21 03:01:41;;;;;;;21.38;15.35;;;;;;;;;;5004115;28;20191;-79
2021/09/21 03:04:16;;;;;;;22.48;16.35;;;;;;;;;;5018950;28;20290;-79
2021/09/21 03:06:47;;;;;;;22.23;15.93;;;;;;;;;;5020644;28;20520;-79
2021/09/21 03:11:45;;;;;;;27.03;17.00;;;;;;;;;;5003939;28;20183;-79
2021/09/21 03:17:16;;;;;;;23.67;17.63;;;;;;;;;;5005034;28;20572;-79
2021/09/21 03:19:42;;;;;;;23.70;17.67;;;;;;;;;;4996075;28;20195;-79
2021/09/21 03:22:08;;;;;;;27.52;18.25;;;;;;;;;;5003830;28;20195;-79
2021/09/21 03:24:34;;;;;;;28.27;17.10;;;;;;;;;;5005927;28;20634;-79
2021/09/21 03:27:00;;;;;;;27.70;17.57;;;;;;;;;;5004321;28;20453;-79
2021/09/21 03:29:27;;;;;;;29.80;17.40;;;;;;;;;;5001894;28;20449;-79
2021/09/21 03:31:53;;;;;;;27.45;18.50;;;;;;;;;;4999672;28;20443;-79
2021/09/21 03:34:19;;;;;;;30.05;20.35;;;;;;;;;;5016011;28;20201;-79
2021/09/21 03:36:45;;;;;;;24.13;17.42;;;;;;;;;;5004969;28;20189;-78
2021/09/21 03:39:11;;;;;;;25.42;17.95;;;;;;;;;;5004844;28;20190;-78
2021/09/21 03:41:37;;;;;;;24.97;18.13;;;;;;;;;;5002809;28;20183;-78
2021/09/21 03:44:03;;;;;;;25.33;18.07;;;;;;;;;;4995863;28;20545;-78
2021/09/21 03:46:29;;;;;;;28.33;18.75;;;;;;;;;;5003043;28;20434;-78
2021/09/21 03:48:56;;;;;;;27.55;18.25;;;;;;;;;;5018386;28;20239;-78
2021/09/21 03:51:22;;;;;;;26.75;18.80;;;;;;;;;;5006444;28;20170;-78
2021/09/21 03:53:48;;;;;;;24.80;17.85;;;;;;;;;;5004565;28;20365;-78
2021/09/21 03:56:14;;;;;;;30.35;20.17;;;;;;;;;;5005088;28;20187;-79
2021/09/21 03:58:40;;;;;;;27.02;17.20;;;;;;;;;;5002571;28;20191;-79
2021/09/21 04:01:06;;;;;;;27.43;17.97;;;;;;;;;;5002975;28;20317;-78
2021/09/21 04:03:32;;;;;;;26.17;17.60;;;;;;;;;;5005504;28;20458;-78
2021/09/21 04:05:58;;;;;;;25.40;16.63;;;;;;;;;;4996824;28;20453;-79
2021/09/21 04:08:24;;;;;;;26.73;18.17;;;;;;;;;;5002574;28;20542;-79
2021/09/21 04:10:50;;;;;;;25.77;17.73;;;;;;;;;;4998854;28;20442;-79
2021/09/21 04:13:16;;;;;;;23.53;16.67;;;;;;;;;;4999666;28;20668;-78
2021/09/21 04:15:42;;;;;;;23.63;16.60;;;;;;;;;;5005005;28;20445;-78
2021/09/21 04:18:08;;;;;;;24.17;17.57;;;;;;;;;;4993373;28;20181;-78
2021/09/21 04:20:34;;;;;;;24.25;16.63;;;;;;;;;;4999523;28;20434;-79
2021/09/21 04:23:01;;;;;;;22.13;17.08;;;;;;;;;;5002362;28;20179;-78
2021/09/21 04:25:28;;;;;;;27.60;19.92;;;;;;;;;;5017219;28;20215;-78
2021/09/21 04:27:54;;;;;;;30.95;19.50;;;;;;;;;;4998067;28;20180;-78
2021/09/21 04:30:22;;;;;;;22.95;17.00;;;;;;;;;;5010596;28;20175;-78
2021/09/21 04:32:48;;;;;;;31.50;20.20;;;;;;;;;;4995458;28;20269;-78
2021/09/21 04:35:14;;;;;;;30.58;20.50;;;;;;;;;;5001790;28;20229;-78
2021/09/21 04:37:40;;;;;;;32.72;21.35;;;;;;;;;;5000826;28;20195;-78
2021/09/21 04:40:07;;;;;;;30.52;21.10;;;;;;;;;;4997712;28;20262;-78
2021/09/21 04:42:33;;;;;;;29.98;21.08;;;;;;;;;;5019704;28;20217;-78
2021/09/21 04:44:59;;;;;;;28.88;20.52;;;;;;;;;;5002810;28;20273;-78
2021/09/21 04:47:25;;;;;;;27.60;20.73;;;;;;;;;;4994986;28;20199;-78
2021/09/21 04:49:51;;;;;;;27.65;20.70;;;;;;;;;;4997968;28;20445;-78
2021/09/21 04:52:17;;;;;;;35.67;22.50;;;;;;;;;;5000070;28;20183;-79
2021/09/21 04:54:43;;;;;;;32.55;23.33;;;;;;;;;;4995857;28;20171;-78
2021/09/21 04:57:10;;;;;;;31.38;21.67;;;;;;;;;;4998790;28;20214;-78
2021/09/21 04:59:36;;;;;;;31.45;21.52;;;;;;;;;;5001389;28;20194;-78
2021/09/21 05:02:02;;;;;;;34.95;23.15;;;;;;;;;;5001256;28;20199;-79
2021/09/21 05:04:28;;;;;;;32.15;22.67;;;;;;;;;;5016409;28;20211;-78
2021/09/21 05:06:54;;;;;;;34.53;23.17;;;;;;;;;;4999123;28;20184;-78
2021/09/21 05:09:20;;;;;;;32.40;22.27;;;;;;;;;;5004861;28;20414;-78
2021/09/21 05:11:46;;;;;;;28.85;20.75;;;;;;;;;;5001224;28;20590;-78
2021/09/21 05:14:13;;;;;;;33.03;22.45;;;;;;;;;;5015603;28;20191;-78
2021/09/21 05:16:39;;;;;;;33.30;22.08;;;;;;;;;;5001004;28;20190;-78
2021/09/21 05:19:07;;;;;;;32.78;22.60;;;;;;;;;;5016465;28;20194;-78
2021/09/21 05:21:34;;;;;;;34.40;23.00;;;;;;;;;;5004047;28;20186;-78
2021/09/21 05:24:00;;;;;;;29.65;22.35;;;;;;;;;;5002165;28;20215;-78
2021/09/21 05:26:26;;;;;;;29.20;21.30;;;;;;;;;;4994628;28;20202;-78
2021/09/21 05:28:52;;;;;;;31.23;20.30;;;;;;;;;;4996886;28;20446;-78
2021/09/21 05:31:18;;;;;;;28.77;19.43;;;;;;;;;;5013412;28;20183;-78
2021/09/21 05:33:44;;;;;;;27.20;19.02;;;;;;;;;;5018119;28;20435;-78
2021/09/21 05:36:10;;;;;;;31.77;21.40;;;;;;;;;;5004355;28;20179;-78
2021/09/21 05:38:36;;;;;;;31.15;22.20;;;;;;;;;;5000519;28;20191;-78
2021/09/21 05:41:02;;;;;;;31.50;22.27;;;;;;;;;;5001022;28;20187;-78
2021/09/21 05:43:28;;;;;;;30.98;21.58;;;;;;;;;;5017701;28;20197;-78
2021/09/21 05:45:54;;;;;;;28.15;20.75;;;;;;;;;;5011224;28;20250;-78
2021/09/21 05:48:20;;;;;;;35.43;22.67;;;;;;;;;;4993736;28;20195;-78
2021/09/21 05:50:46;;;;;;;30.75;21.25;;;;;;;;;;5004380;28;20441;-78
2021/09/21 05:53:12;;;;;;;27.80;21.00;;;;;;;;;;5008798;28;20233;-78
2021/09/21 05:55:38;;;;;;;32.17;21.93;;;;;;;;;;5016051;28;20478;-78
2021/09/21 05:58:04;;;;;;;32.08;24.02;;;;;;;;;;5011431;28;20968;-78
2021/09/21 06:00:31;;;;;;;34.37;22.70;;;;;;;;;;5018753;28;20221;-78
2021/09/21 06:02:57;;;;;;;32.25;21.35;;;;;;;;;;5001246;28;20469;-78
2021/09/21 06:05:24;;;;;;;31.10;22.27;;;;;;;;;;4999104;28;20233;-78
2021/09/21 06:07:50;;;;;;;36.53;22.80;;;;;;;;;;4996805;28;20231;-78
2021/09/21 06:10:18;;;;;;;28.75;20.40;;;;;;;;;;5012917;28;20263;-77
2021/09/21 06:12:44;;;;;;;33.75;23.67;;;;;;;;;;5017122;28;20177;-78
2021/09/21 06:15:11;;;;;;;31.63;21.73;;;;;;;;;;5002033;28;20182;-78
2021/09/21 06:17:37;;;;;;;29.23;21.50;;;;;;;;;;4995103;28;20533;-78
2021/09/21 06:20:04;;;;;;;28.40;20.85;;;;;;;;;;4995015;28;20184;-78
2021/09/21 06:22:30;;;;;;;31.30;21.17;;;;;;;;;;4999868;28;20189;-78
2021/09/21 06:24:56;;;;;;;35.23;22.30;;;;;;;;;;5000732;28;20214;-78
2021/09/21 06:27:22;;;;;;;31.40;21.25;;;;;;;;;;4997447;28;20881;-79
2021/09/21 06:29:48;;;;;;;30.00;20.98;;;;;;;;;;4999690;28;20210;-78
2021/09/21 06:32:14;;;;;;;25.90;18.93;;;;;;;;;;5014368;28;20198;-78
2021/09/21 06:34:40;;;;;;;37.60;21.90;;;;;;;;;;4998279;28;20525;-77
2021/09/21 06:37:06;;;;;;;30.30;20.50;;;;;;;;;;4999962;28;20443;-78
2021/09/21 06:39:32;;;;;;;28.50;19.73;;;;;;;;;;5017670;28;20441;-78
2021/09/21 06:41:58;;;;;;;25.02;17.55;;;;;;;;;;5001265;28;20178;-78
2021/09/21 06:44:24;;;;;;;24.13;17.47;;;;;;;;;;4999300;28;20231;-78
2021/09/21 06:46:50;;;;;;;25.55;18.73;;;;;;;;;;4999322;28;20418;-77
2021/09/21 06:49:16;;;;;;;22.95;18.42;;;;;;;;;;5000098;28;20684;-77
2021/09/21 06:51:42;;;;;;;26.63;19.20;;;;;;;;;;5002669;28;20191;-77
2021/09/21 06:54:08;;;;;;;27.23;18.20;;;;;;;;;;5001667;28;20418;-76
2021/09/21 06:56:34;;;;;;;28.92;19.20;;;;;;;;;;5002290;28;20622;-77
2021/09/21 06:59:00;;;;;;;23.30;16.77;;;;;;;;;;5000962;28;20633;-77
2021/09/21 07:01:28;;;;;;;23.90;17.50;;;;;;;;;;5001588;28;20453;-77
2021/09/21 07:03:54;;;;;;;25.60;17.35;;;;;;;;;;5001106;28;20196;-77
2021/09/21 07:06:20;;;;;;;23.10;17.30;;;;;;;;;;5000780;28;20261;-77
2021/09/21 07:08:46;;;;;;;24.02;16.75;;;;;;;;;;5000630;28;20442;-77
2021/09/21 07:11:13;;;;;;;20.00;15.18;;;;;;;;;;5001440;28;20183;-77
2021/09/21 07:13:39;;;;;;;17.73;14.70;;;;;;;;;;4998713;28;20179;-77
2021/09/21 07:16:06;;;;;;;21.33;15.68;;;;;;;;;;5003721;28;20248;-77
2021/09/21 07:18:32;;;;;;;17.55;15.20;;;;;;;;;;5020542;28;20179;-78
2021/09/21 07:20:58;;;;;;;18.60;15.40;;;;;;;;;;5004498;28;20179;-77
2021/09/21 07:23:24;;;;;;;21.70;16.30;;;;;;;;;;5003232;28;20857;-77
2021/09/21 07:25:50;;;;;;;20.17;15.63;;;;;;;;;;5003326;28;20554;-76
2021/09/21 07:28:16;;;;;;;18.58;14.52;;;;;;;;;;5017946;28;20448;-77
2021/09/21 07:30:42;;;;;;;22.50;15.30;;;;;;;;;;5006117;28;20175;-77
2021/09/21 07:33:13;;;;;;;18.48;14.23;;;;;;;;;;5004637;28;20419;-77
2021/09/21 07:35:39;;;;;;;18.85;12.90;;;;;;;;;;5003707;28;20182;-77
2021/09/21 07:38:05;;;;;;;16.95;14.63;;;;;;;;;;5004502;28;20189;-77
2021/09/21 07:40:35;;;;;;;20.27;14.37;;;;;;;;;;5003066;28;20188;-77
2021/09/21 07:43:01;;;;;;;17.60;12.80;;;;;;;;;;5004273;28;20438;-77
2021/09/21 07:45:27;;;;;;;15.60;11.93;;;;;;;;;;5001649;28;20676;-77
2021/09/21 07:47:53;;;;;;;19.73;12.40;;;;;;;;;;4999897;28;20215;-78
2021/09/21 07:50:19;;;;;;;10.38;9.27;;;;;;;;;;5002101;28;20435;-78
2021/09/21 07:52:45;;;;;;;16.63;11.38;;;;;;;;;;5004445;28;20188;-78
2021/09/21 07:55:11;;;;;;;11.67;10.20;;;;;;;;;;5004749;28;20196;-78
2021/09/21 07:57:38;;;;;;;12.15;9.80;;;;;;;;;;5004934;28;20418;-78
2021/09/21 08:00:06;;;;;;;12.90;11.02;;;;;;;;;;5004009;28;20175;-78
2021/09/21 08:02:32;;;;;;;11.65;9.48;;;;;;;;;;5003278;28;20619;-79
2021/09/21 08:04:58;;;;;;;12.00;9.77;;;;;;;;;;4998201;28;20335;-78
2021/09/21 08:07:28;;;;;;;13.95;9.63;;;;;;;;;;5001137;28;20436;-79
2021/09/21 08:09:54;;;;;;;10.82;9.52;;;;;;;;;;5017440;28;20207;-79
2021/09/21 08:12:20;;;;;;;16.27;9.05;;;;;;;;;;4998553;28;20175;-79
2021/09/21 08:14:49;;;;;;;9.90;8.13;;;;;;;;;;5004543;28;20185;-79
2021/09/21 08:17:16;;;;;;;11.30;9.23;;;;;;;;;;4995650;28;20250;-77
2021/09/21 08:19:43;;;;;;;11.73;8.48;;;;;;;;;;5002234;28;20716;-79
2021/09/21 08:22:09;;;;;;;11.15;8.20;;;;;;;;;;5000164;28;20185;-79
2021/09/21 08:24:35;;;;;;;9.57;6.55;;;;;;;;;;5004662;28;20209;-81
2021/09/21 08:27:01;;;;;;;8.63;7.55;;;;;;;;;;5005903;28;20204;-80
2021/09/21 08:29:27;;;;;;;8.00;6.80;;;;;;;;;;4994563;28;20189;-81
2021/09/21 08:31:53;;;;;;;9.68;5.90;;;;;;;;;;5003372;28;20197;-78
2021/09/21 08:34:19;;;;;;;9.07;6.37;;;;;;;;;;5017614;28;20193;-80
2021/09/21 08:36:45;;;;;;;8.00;5.90;;;;;;;;;;5004626;28;20413;-82
2021/09/21 08:39:11;;;;;;;6.25;5.45;;;;;;;;;;5005106;28;20173;-80
2021/09/21 08:41:37;;;;;;;8.07;6.35;;;;;;;;;;4999612;28;20189;-82
2021/09/21 08:44:03;;;;;;;6.60;5.53;;;;;;;;;;5001272;28;20214;-83
2021/09/21 08:46:30;;;;;;;6.63;5.88;;;;;;;;;;5015225;28;20193;-83
2021/09/21 08:48:56;;;;;;;8.95;5.50;;;;;;;;;;5002725;28;20198;-84
2021/09/21 08:51:22;;;;;;;5.50;5.00;;;;;;;;;;5004079;28;20206;-83
2021/09/21 08:53:48;;;;;;;9.18;5.53;;;;;;;;;;4994551;28;20186;-82
2021/09/21 08:56:14;;;;;;;5.40;4.90;;;;;;;;;;4994999;28;20187;-82
2021/09/21 08:58:40;;;;;;;5.60;5.07;;;;;;;;;;5001505;28;20198;-81
2021/09/21 09:01:13;;;;;;;7.07;5.77;;;;;;;;;;5017612;28;20250;-82
2021/09/21 09:03:39;;;;;;;11.43;6.22;;;;;;;;;;5019138;28;20939;-84
2021/09/21 09:06:07;;;;;;;5.10;4.32;;;;;;;;;;5003165;28;20187;-83
2021/09/21 09:08:34;;;;;;;5.72;4.85;;;;;;;;;;5001558;28;20210;-83
2021/09/21 09:11:12;;;;;;;7.38;3.80;;;;;;;;;;4996348;28;20211;-80
2021/09/21 09:13:38;;;;;;;5.88;4.20;;;;;;;;;;4991665;28;20239;-84
2021/09/21 09:16:07;;;;;;;4.53;4.13;;;;;;;;;;5002024;28;20179;-83
2021/09/21 09:18:33;;;;;;;4.90;4.40;;;;;;;;;;5019357;28;20193;-83
2021/09/21 09:20:59;;;;;;;4.00;3.60;;;;;;;;;;4995957;28;20187;-83
2021/09/21 09:23:25;;;;;;;4.30;3.90;;;;;;;;;;5001013;28;20455;-82
2021/09/21 09:25:52;;;;;;;5.80;4.43;;;;;;;;;;5001203;28;20187;-83
2021/09/21 09:28:25;;;;;;;11.32;3.67;;;;;;;;;;5001315;28;20216;-82
2021/09/21 09:30:52;;;;;;;4.10;3.65;;;;;;;;;;5002673;28;20184;-82
2021/09/21 09:33:19;;;;;;;4.85;3.92;;;;;;;;;;4998015;28;20210;-82
2021/09/21 09:35:46;;;;;;;5.22;4.72;;;;;;;;;;5001331;28;20199;-82
2021/09/21 09:38:18;;;;;;;5.65;4.15;;;;;;;;;;5000364;28;20190;-81
2021/09/21 09:40:50;;;;;;;4.18;3.78;;;;;;;;;;4998272;28;20198;-82
2021/09/21 09:43:18;;;;;;;4.43;3.90;;;;;;;;;;4999751;28;20187;-82
2021/09/21 09:45:45;;;;;;;9.02;4.28;;;;;;;;;;5003513;28;20225;-81
2021/09/21 09:48:12;;;;;;;4.20;3.80;;;;;;;;;;5001082;28;20183;-82
2021/09/21 09:50:42;;;;;;;4.60;4.15;;;;;;;;;;5001248;28;20239;-83
2021/09/21 09:53:16;;;;;;;4.90;4.43;;;;;;;;;;4996325;28;20238;-82
2021/09/21 09:55:44;;;;;;;5.05;4.05;;;;;;;;;;4999359;28;20210;-82
2021/09/21 09:58:10;;;;;;;4.60;3.80;;;;;;;;;;5016709;28;20619;-85
2021/09/21 10:00:36;;;;;;;4.18;3.55;;;;;;;;;;5003654;28;20183;-81
2021/09/21 10:03:03;;;;;;;5.10;4.03;;;;;;;;;;4997039;28;20205;-83
2021/09/21 10:05:30;;;;;;;7.03;3.88;;;;;;;;;;5000741;28;20217;-84
2021/09/21 10:07:57;;;;;;;5.38;4.78;;;;;;;;;;4996900;28;20210;-82
2021/09/21 10:10:23;;;;;;;4.53;3.97;;;;;;;;;;4998925;28;20178;-85
2021/09/21 10:12:50;;;;;;;6.07;4.35;;;;;;;;;;5001930;28;20242;-84
2021/09/21 10:15:16;;;;;;;6.35;4.95;;;;;;;;;;5005560;28;20181;-81
2021/09/21 10:17:55;;;;;;;6.63;4.20;;;;;;;;;;5002235;28;20183;-82
2021/09/21 10:20:22;;;;;;;5.97;4.72;;;;;;;;;;4993617;28;20197;-84
2021/09/21 10:22:55;;;;;;;7.60;5.10;;;;;;;;;;4997729;28;20254;-84
2021/09/21 10:25:47;;;;;;;6.75;5.10;;;;;;;;;;4998253;28;20213;-81
2021/09/21 10:28:19;;;;;;;5.80;5.25;;;;;;;;;;4995400;28;20199;-84
2021/09/21 10:30:55;;;;;;;6.72;5.50;;;;;;;;;;5002734;28;20183;-83
2021/09/21 10:33:28;;;;;;;6.13;5.55;;;;;;;;;;5004198;28;20174;-84
2021/09/21 10:35:54;;;;;;;5.85;5.35;;;;;;;;;;5000784;28;20171;-84
2021/09/21 10:38:21;;;;;;;5.93;5.15;;;;;;;;;;5000471;28;20298;-81
2021/09/21 10:40:49;;;;;;;6.00;5.40;;;;;;;;;;5001653;28;20203;-82
2021/09/21 10:43:24;;;;;;;6.43;5.82;;;;;;;;;;5015302;28;20183;-82
2021/09/21 10:45:51;;;;;;;6.35;5.07;;;;;;;;;;5001801;28;20226;-83
2021/09/21 10:48:21;;;;;;;8.55;6.82;;;;;;;;;;5003410;28;20214;-81
2021/09/21 10:50:57;;;;;;;8.32;6.40;;;;;;;;;;5001362;28;20186;-84
2021/09/21 10:53:24;;;;;;;9.82;6.72;;;;;;;;;;5006238;28;20294;-84
2021/09/21 10:56:05;;;;;;;7.72;6.88;;;;;;;;;;5015437;28;20187;-81
2021/09/21 10:58:31;;;;;;;8.13;6.25;;;;;;;;;;5006084;28;20730;-79
2021/09/21 11:00:57;;;;;;;8.18;7.35;;;;;;;;;;5020912;28;20195;-86
2021/09/21 11:03:25;;;;;;;7.88;7.07;;;;;;;;;;5005710;28;20187;-80
2021/09/21 11:05:51;;;;;;;7.82;6.47;;;;;;;;;;4995830;28;20203;-80
2021/09/21 11:08:18;;;;;;;10.20;7.00;;;;;;;;;;5006013;28;20187;-83
2021/09/21 11:10:48;;;;;;;7.60;6.38;;;;;;;;;;5004606;28;20236;-81
2021/09/21 11:13:16;;;;;;;9.00;7.60;;;;;;;;;;5003634;28;20560;-88
2021/09/21 11:15:42;;;;;;;8.70;7.38;;;;;;;;;;5006335;28;20179;-81
2021/09/21 11:18:13;;;;;;;8.70;7.35;;;;;;;;;;5000104;28;20252;-81
2021/09/21 11:20:53;;;;;;;9.55;7.70;;;;;;;;;;5013237;28;20214;-83
2021/09/21 11:23:21;;;;;;;8.25;7.55;;;;;;;;;;5003635;28;20199;-82
2021/09/21 11:25:48;;;;;;;8.90;7.97;;;;;;;;;;5003511;28;20195;-85
2021/09/21 11:28:14;;;;;;;10.80;9.20;;;;;;;;;;5003767;28;20198;-82
2021/09/21 11:30:41;;;;;;;11.27;8.45;;;;;;;;;;5020730;28;20747;-81
2021/09/21 11:33:14;;;;;;;9.80;8.90;;;;;;;;;;5004726;28;20175;-82
2021/09/21 11:35:44;;;;;;;10.90;8.85;;;;;;;;;;5005741;28;20207;-81
2021/09/21 11:38:10;;;;;;;8.43;7.30;;;;;;;;;;5018258;28;20190;-83
2021/09/21 11:40:37;;;;;;;10.95;8.50;;;;;;;;;;5002999;28;20191;-81
2021/09/21 11:43:03;;;;;;;8.82;7.90;;;;;;;;;;5002863;28;20179;-81
2021/09/21 11:45:30;;;;;;;9.10;7.22;;;;;;;;;;5007052;28;20226;-87
2021/09/21 11:47:56;;;;;;;9.05;8.15;;;;;;;;;;5002979;28;20242;-84
2021/09/21 11:50:23;;;;;;;10.95;8.52;;;;;;;;;;5003383;28;20189;-85
2021/09/21 11:52:51;;;;;;;9.52;8.63;;;;;;;;;;5004589;28;20190;-84
2021/09/21 11:55:18;;;;;;;9.00;7.60;;;;;;;;;;5001933;28;20192;-82
2021/09/21 11:57:45;;;;;;;10.55;9.25;;;;;;;;;;5004606;28;20692;-82
2021/09/21 12:00:20;;;;;;;9.93;8.93;;;;;;;;;;5004504;28;20191;-84
2021/09/21 12:02:46;;;;;;;9.93;8.30;;;;;;;;;;5005282;28;20238;-82
2021/09/21 12:05:13;;;;;;;8.48;7.68;;;;;;;;;;5002291;28;20234;-85
2021/09/21 12:07:40;;;;;;;10.90;8.70;;;;;;;;;;5003975;28;20675;-80
2021/09/21 12:10:07;;;;;;;8.45;7.75;;;;;;;;;;5018580;28;20483;-85
2021/09/21 12:12:33;;;;;;;10.25;9.15;;;;;;;;;;5017966;28;20186;-84
2021/09/21 12:15:00;;;;;;;11.10;9.20;;;;;;;;;;4999855;28;20188;-83
2021/09/21 12:17:26;;;;;;;8.85;7.82;;;;;;;;;;5002344;28;20745;-81
2021/09/21 12:19:59;;;;;;;9.38;8.40;;;;;;;;;;4998600;28;20189;-83
2021/09/21 12:22:26;;;;;;;9.52;8.52;;;;;;;;;;5000806;28;20191;-81
2021/09/21 12:24:53;;;;;;;10.10;9.10;;;;;;;;;;5003616;28;20207;-85
2021/09/21 12:27:23;;;;;;;10.25;8.27;;;;;;;;;;4999031;28;20179;-82
2021/09/21 12:29:49;;;;;;;11.48;9.85;;;;;;;;;;5001749;28;20184;-82
2021/09/21 12:32:15;;;;;;;11.23;8.18;;;;;;;;;;5000228;28;20189;-84
2021/09/21 12:34:43;;;;;;;10.23;8.65;;;;;;;;;;4995163;28;20187;-82
2021/09/21 12:37:09;;;;;;;10.38;9.20;;;;;;;;;;5000700;28;20218;-83
2021/09/21 12:39:35;;;;;;;9.13;8.20;;;;;;;;;;5003220;28;20549;-83
2021/09/21 12:42:03;;;;;;;10.02;9.10;;;;;;;;;;5001967;28;20192;-84
2021/09/21 12:44:29;;;;;;;10.07;8.80;;;;;;;;;;5002020;28;20232;-85
2021/09/21 12:46:58;;;;;;;9.88;8.90;;;;;;;;;;4998468;28;20664;-87
2021/09/21 12:49:28;;;;;;;8.68;7.85;;;;;;;;;;4999801;28;20181;-88
2021/09/21 12:51:55;;;;;;;10.90;9.75;;;;;;;;;;5018804;28;20271;-82
2021/09/21 12:54:22;;;;;;;10.63;8.27;;;;;;;;;;4994723;28;20604;-85
2021/09/21 12:56:54;;;;;;;8.45;7.65;;;;;;;;;;5001025;28;20201;-83
2021/09/21 12:59:21;;;;;;;9.53;8.57;;;;;;;;;;5017234;28;20198;-82
2021/09/21 13:01:47;;;;;;;9.52;8.57;;;;;;;;;;5001674;28;20431;-85
2021/09/21 13:04:14;;;;;;;13.10;9.63;;;;;;;;;;4999826;28;20215;-82
2021/09/21 13:06:42;;;;;;;9.48;8.43;;;;;;;;;;5004733;28;20715;-83
2021/09/21 13:09:08;;;;;;;10.60;9.50;;;;;;;;;;4999868;28;20184;-84
2021/09/21 13:11:34;;;;;;;10.63;9.10;;;;;;;;;;5001070;28;20280;-85
2021/09/21 13:14:01;;;;;;;10.43;8.30;;;;;;;;;;4999888;28;20439;-85
2021/09/21 13:16:27;;;;;;;9.90;8.90;;;;;;;;;;5001385;28;20192;-86
2021/09/21 13:18:53;;;;;;;10.00;9.00;;;;;;;;;;5002118;28;20200;-85
2021/09/21 13:21:22;;;;;;;10.10;9.05;;;;;;;;;;5003930;28;20187;-81
2021/09/21 13:23:49;;;;;;;11.13;9.60;;;;;;;;;;4994978;28;20266;-82
2021/09/21 13:26:15;;;;;;;11.73;9.40;;;;;;;;;;5001449;28;20198;-88
2021/09/21 13:28:42;;;;;;;11.20;10.13;;;;;;;;;;4999840;28;20184;-81
2021/09/21 13:31:08;;;;;;;10.48;9.25;;;;;;;;;;5001205;28;20642;-85
2021/09/21 13:33:34;;;;;;;10.18;9.15;;;;;;;;;;5019818;28;20183;-82
2021/09/21 13:36:00;;;;;;;10.47;9.43;;;;;;;;;;5002070;28;20638;-83
2021/09/21 13:38:26;;;;;;;10.93;9.80;;;;;;;;;;4998040;28;20426;-85
2021/09/21 13:40:52;;;;;;;9.70;8.70;;;;;;;;;;5009103;28;20186;-84
2021/09/21 13:43:18;;;;;;;10.38;8.82;;;;;;;;;;5000833;28;20216;-84
2021/09/21 13:45:45;;;;;;;10.80;9.63;;;;;;;;;;5003289;28;20231;-87
2021/09/21 13:48:11;;;;;;;12.35;10.10;;;;;;;;;;5001003;28;20424;-83
2021/09/21 13:50:37;;;;;;;10.65;9.55;;;;;;;;;;4994809;28;20203;-84
2021/09/21 13:53:03;;;;;;;13.50;9.80;;;;;;;;;;5002966;28;20232;-83
2021/09/21 13:55:29;;;;;;;12.55;11.27;;;;;;;;;;5000818;28;20615;-84
2021/09/21 13:57:55;;;;;;;9.88;8.95;;;;;;;;;;5016259;28;20596;-83
2021/09/21 14:00:22;;;;;;;11.40;9.50;;;;;;;;;;5004622;28;20184;-85
2021/09/21 14:02:49;;;;;;;11.00;9.82;;;;;;;;;;4994095;28;20401;-84
2021/09/21 14:05:16;;;;;;;11.73;8.93;;;;;;;;;;5005007;28;20214;-83
2021/09/21 14:07:42;;;;;;;11.70;10.20;;;;;;;;;;5000676;28;20184;-89
2021/09/21 14:10:09;;;;;;;10.10;8.88;;;;;;;;;;5001183;28;20188;-81
2021/09/21 14:12:35;;;;;;;9.85;8.82;;;;;;;;;;5018006;28;20243;-85
2021/09/21 14:15:04;;;;;;;9.95;8.95;;;;;;;;;;5001955;28;20259;-82
2021/09/21 14:17:30;;;;;;;9.85;8.85;;;;;;;;;;5000454;28;20199;-82
2021/09/21 14:19:56;;;;;;;9.77;8.77;;;;;;;;;;5001005;28;20167;-84
2021/09/21 14:22:22;;;;;;;10.47;9.37;;;;;;;;;;5015660;28;20225;-84
2021/09/21 14:24:48;;;;;;;9.17;8.17;;;;;;;;;;5002075;28;20801;-86
2021/09/21 14:27:14;;;;;;;9.73;8.50;;;;;;;;;;5003208;28;20396;-86
2021/09/21 14:29:40;;;;;;;9.10;8.30;;;;;;;;;;4993955;28;20491;-83
2021/09/21 14:32:07;;;;;;;10.05;9.02;;;;;;;;;;5000604;28;20188;-84
2021/09/21 14:34:33;;;;;;;10.35;9.25;;;;;;;;;;5017488;28;20215;-82
2021/09/21 14:36:59;;;;;;;10.70;9.60;;;;;;;;;;5011171;28;20217;-85